createdAt,value
2023-02-27T00:01:45.120Z,4.20
2023-02-27T00:04:11.743Z,2.07
2023-02-27T00:06:38.386Z,3.17
2023-02-27T00:09:05.108Z,2.83
2023-02-27T00:11:31.772Z,2.40
2023-02-27T00:13:58.519Z,1.93
2023-02-27T00:16:25.237Z,4.77
2023-02-27T00:18:51.845Z,3.37
2023-02-27T00:21:18.481Z,2.63
2023-02-27T00:23:45.092Z,5.07
2023-02-27T00:26:11.700Z,1.60
2023-02-27T00:28:38.354Z,2.43
2023-02-27T00:31:05.200Z,1.53
2023-02-27T00:33:31.907Z,1.37
2023-02-27T00:36:02.096Z,2.27
2023-02-27T00:38:28.793Z,2.57
2023-02-27T00:40:55.411Z,1.93
2023-02-27T00:43:22.035Z,3.33
2023-02-27T00:45:48.943Z,1.60
2023-02-27T00:48:15.960Z,1.50
2023-02-27T00:50:42.907Z,1.10
2023-02-27T00:53:09.493Z,2.57
2023-02-27T00:55:36.137Z,2.90
2023-02-27T00:58:02.773Z,2.30
2023-02-27T01:00:29.489Z,1.70
2023-02-27T01:02:56.140Z,1.33
2023-02-27T01:05:23.090Z,2.13
2023-02-27T01:07:49.778Z,1.40
2023-02-27T01:10:16.651Z,3.03
2023-02-27T01:12:43.497Z,1.20
2023-02-27T01:15:10.358Z,2.33
2023-02-27T01:17:36.972Z,1.10
2023-02-27T01:20:04.353Z,1.97
2023-02-27T01:22:31.105Z,2.80
2023-02-27T01:24:57.783Z,1.10
2023-02-27T01:27:24.489Z,1.37
2023-02-27T01:29:51.068Z,1.80
2023-02-27T01:32:17.798Z,2.03
2023-02-27T01:34:44.450Z,1.30
2023-02-27T01:37:11.050Z,2.73
2023-02-27T01:39:37.710Z,1.90
2023-02-27T01:42:04.364Z,1.20
2023-02-27T01:44:31.506Z,1.87
2023-02-27T01:46:58.166Z,2.97
2023-02-27T01:49:29.319Z,1.60
2023-02-27T01:52:05.659Z,0.70
2023-02-27T01:54:34.127Z,4.10
2023-02-27T01:57:02.949Z,1.70
2023-02-27T01:59:29.654Z,2.13
2023-02-27T02:01:56.610Z,1.97
2023-02-27T02:04:31.448Z,2.27
2023-02-27T02:07:18.770Z,1.67
2023-02-27T02:09:54.188Z,2.00
2023-02-27T02:12:29.934Z,1.63
2023-02-27T02:14:56.527Z,2.63
2023-02-27T02:17:45.350Z,2.03
2023-02-27T02:20:38.713Z,1.73
2023-02-27T02:23:08.508Z,1.67
2023-02-27T02:25:38.259Z,1.03
2023-02-27T02:28:39.872Z,1.07
2023-02-27T02:31:28.529Z,1.90
2023-02-27T02:34:33.384Z,1.53
2023-02-27T02:37:37.552Z,1.63
2023-02-27T02:40:06.097Z,1.60
2023-02-27T02:42:43.797Z,2.73
2023-02-27T02:45:15.580Z,1.30
2023-02-27T02:48:10.471Z,1.83
2023-02-27T02:50:59.914Z,1.20
2023-02-27T02:53:37.706Z,0.90
2023-02-27T02:56:14.197Z,1.37
2023-02-27T02:59:08.477Z,2.40
2023-02-27T03:01:41.662Z,1.90
2023-02-27T03:04:21.651Z,1.63
2023-02-27T03:06:52.451Z,2.40
2023-02-27T03:09:45.699Z,2.63
2023-02-27T03:12:14.187Z,2.17
2023-02-27T03:14:56.176Z,0.83
2023-02-27T03:17:43.423Z,1.03
2023-02-27T03:20:12.655Z,1.83
2023-02-27T03:22:40.912Z,1.27
2023-02-27T03:25:09.234Z,1.67
2023-02-27T03:27:41.711Z,2.00
2023-02-27T03:30:28.064Z,4.80
2023-02-27T03:33:01.627Z,1.90
2023-02-27T03:36:10.394Z,2.13
2023-02-27T03:38:49.309Z,1.97
2023-02-27T03:41:37.817Z,1.60
2023-02-27T03:44:06.566Z,1.80
2023-02-27T03:46:33.243Z,2.17
2023-02-27T03:48:59.856Z,1.87
2023-02-27T03:51:28.810Z,2.23
2023-02-27T03:54:03.853Z,1.30
2023-02-27T03:56:48.838Z,1.60
2023-02-27T03:59:15.526Z,1.33
2023-02-27T04:01:42.827Z,1.43
2023-02-27T04:04:14.624Z,2.47
2023-02-27T04:07:03.915Z,1.77
2023-02-27T04:10:15.777Z,2.47
2023-02-27T04:13:04.510Z,1.10
2023-02-27T04:16:01.943Z,1.87
2023-02-27T04:18:37.049Z,1.03
2023-02-27T04:21:08.002Z,0.97
2023-02-27T04:23:39.887Z,2.27
2023-02-27T04:26:15.553Z,1.73
2023-02-27T04:28:50.093Z,2.77
2023-02-27T04:31:22.545Z,2.90
2023-02-27T04:33:52.489Z,2.83
2023-02-27T04:36:32.734Z,1.53
2023-02-27T04:39:06.088Z,1.10
2023-02-27T04:41:45.069Z,2.03
2023-02-27T04:44:11.823Z,2.90
2023-02-27T04:46:39.388Z,1.93
2023-02-27T04:49:13.318Z,2.00
2023-02-27T04:51:45.289Z,1.53
2023-02-27T04:54:13.971Z,2.63
2023-02-27T04:57:02.286Z,3.60
2023-02-27T04:59:31.328Z,1.33
2023-02-27T05:02:01.093Z,1.57
2023-02-27T05:04:29.905Z,1.97
2023-02-27T05:06:56.843Z,1.97
2023-02-27T05:09:38.228Z,1.53
2023-02-27T05:12:15.320Z,1.90
2023-02-27T05:15:07.107Z,2.40
2023-02-27T05:17:40.231Z,1.20
2023-02-27T05:20:07.294Z,2.53
2023-02-27T05:22:39.768Z,1.20
2023-02-27T05:25:15.735Z,1.20
2023-02-27T05:27:44.707Z,1.33
2023-02-27T05:30:29.969Z,1.57
2023-02-27T05:33:07.638Z,2.47
2023-02-27T05:35:45.272Z,1.90
2023-02-27T05:38:17.659Z,2.17
2023-02-27T05:40:47.593Z,0.93
2023-02-27T05:43:20.460Z,1.60
2023-02-27T05:45:48.161Z,1.47
2023-02-27T05:48:19.720Z,1.40
2023-02-27T05:50:47.464Z,1.63
2023-02-27T05:53:15.277Z,1.90
2023-02-27T05:55:52.889Z,1.67
2023-02-27T05:58:26.489Z,2.17
2023-02-27T06:01:00.730Z,2.27
2023-02-27T06:03:28.411Z,2.33
2023-02-27T06:05:55.481Z,2.47
2023-02-27T06:08:22.167Z,1.67
2023-02-27T06:10:51.802Z,1.87
2023-02-27T06:13:18.631Z,2.70
2023-02-27T06:15:45.506Z,2.73
2023-02-27T06:18:12.562Z,1.83
2023-02-27T06:20:39.703Z,1.60
2023-02-27T06:23:06.627Z,9.10
2023-02-27T06:25:33.275Z,6.70
2023-02-27T06:27:59.874Z,9.30
2023-02-27T06:30:26.687Z,1.37
2023-02-27T06:32:53.310Z,7.27
2023-02-27T06:35:19.963Z,8.27
2023-02-27T06:37:46.540Z,4.63
2023-02-27T06:40:13.775Z,5.53
2023-02-27T06:42:41.156Z,6.67
2023-02-27T06:45:08.445Z,5.47
2023-02-27T06:47:35.104Z,5.00
2023-02-27T06:50:01.755Z,6.17
2023-02-27T06:52:28.405Z,7.13
2023-02-27T06:54:55.025Z,7.60
2023-02-27T06:57:21.803Z,4.37
2023-02-27T06:59:48.445Z,6.80
2023-02-27T07:02:15.486Z,6.47
2023-02-27T07:04:42.374Z,11.53
2023-02-27T07:07:32.433Z,10.83
2023-02-27T07:09:55.631Z,4.33
2023-02-27T07:12:22.240Z,11.10
2023-02-27T07:14:48.849Z,5.97
2023-02-27T07:17:15.493Z,12.43
2023-02-27T07:19:42.095Z,3.37
2023-02-27T07:22:09.620Z,7.50
2023-02-27T07:24:36.694Z,3.37
2023-02-27T07:27:03.522Z,6.97
2023-02-27T07:29:30.144Z,6.97
2023-02-27T07:31:56.889Z,7.43
2023-02-27T07:34:23.526Z,4.67
2023-02-27T07:36:50.144Z,6.27
2023-02-27T07:39:16.781Z,4.17
2023-02-27T07:41:43.344Z,8.43
2023-02-27T07:44:10.712Z,5.10
2023-02-27T07:46:37.415Z,9.53
2023-02-27T07:49:04.023Z,6.03
2023-02-27T07:51:30.778Z,8.63
2023-02-27T07:53:58.328Z,7.13
2023-02-27T07:56:26.790Z,9.27
2023-02-27T07:58:53.624Z,5.60
2023-02-27T08:01:20.280Z,8.23
2023-02-27T08:03:46.864Z,4.00
2023-02-27T08:06:13.551Z,5.47
2023-02-27T08:08:40.168Z,4.70
2023-02-27T08:11:06.768Z,4.77
2023-02-27T08:14:00.031Z,8.40
2023-02-27T08:16:21.158Z,5.13
2023-02-27T08:18:47.802Z,7.33
2023-02-27T08:21:14.528Z,3.40
2023-02-27T08:23:42.631Z,8.50
2023-02-27T08:26:09.344Z,4.10
2023-02-27T08:28:35.940Z,4.40
2023-02-27T08:31:02.603Z,2.57
2023-02-27T08:33:29.490Z,5.50
2023-02-27T08:35:56.965Z,3.07
2023-02-27T08:38:25.444Z,5.50
2023-02-27T08:40:55.656Z,2.23
2023-02-27T08:43:22.854Z,4.87
2023-02-27T08:45:50.068Z,1.73
2023-02-27T08:48:17.713Z,2.33
2023-02-27T08:50:44.700Z,5.20
2023-02-27T08:53:11.647Z,4.77
2023-02-27T08:55:38.236Z,2.67
2023-02-27T08:58:04.876Z,3.37
2023-02-27T09:00:32.455Z,2.73
2023-02-27T09:02:59.965Z,5.13
2023-02-27T09:05:26.759Z,3.10
2023-02-27T09:07:53.406Z,4.70
2023-02-27T09:10:20.013Z,2.77
2023-02-27T09:12:46.648Z,1.87
2023-02-27T09:15:13.285Z,4.23
2023-02-27T09:17:39.958Z,2.33
2023-02-27T09:20:09.192Z,3.80
2023-02-27T09:22:35.852Z,3.10
2023-02-27T09:25:02.627Z,3.10
2023-02-27T09:27:29.252Z,3.40
2023-02-27T09:29:56.361Z,2.93
2023-02-27T09:32:23.483Z,4.33
2023-02-27T09:34:50.306Z,2.47
2023-02-27T09:37:17.166Z,1.90
2023-02-27T09:39:45.981Z,1.87
2023-02-27T09:42:20.783Z,3.73
2023-02-27T09:44:52.210Z,4.47
2023-02-27T09:47:25.438Z,5.20
2023-02-27T09:49:59.434Z,4.97
2023-02-27T09:52:26.732Z,2.97
2023-02-27T09:54:55.061Z,5.07
2023-02-27T09:57:31.142Z,1.77
2023-02-27T10:00:00.856Z,2.83
2023-02-27T10:02:36.865Z,3.00
2023-02-27T10:05:13.644Z,3.53
2023-02-27T10:07:58.343Z,5.97
2023-02-27T10:11:00.789Z,2.67
2023-02-27T10:13:34.180Z,1.87
2023-02-27T10:16:01.070Z,1.77
2023-02-27T10:18:31.666Z,3.70
2023-02-27T10:21:10.693Z,4.40
2023-02-27T10:23:45.036Z,3.33
2023-02-27T10:26:18.178Z,3.40
2023-02-27T10:28:44.774Z,2.97
2023-02-27T10:31:16.147Z,5.07
2023-02-27T10:33:42.840Z,1.87
2023-02-27T10:36:18.062Z,5.00
2023-02-27T10:38:58.339Z,2.83
2023-02-27T10:41:24.974Z,2.40
2023-02-27T10:43:55.123Z,1.20
2023-02-27T10:46:30.162Z,2.63
2023-02-27T10:49:00.241Z,3.40
2023-02-27T10:51:32.152Z,2.47
2023-02-27T10:54:20.299Z,2.23
2023-02-27T10:56:57.390Z,3.33
2023-02-27T10:59:33.707Z,2.80
2023-02-27T11:02:01.810Z,1.70
2023-02-27T11:04:31.439Z,3.13
2023-02-27T11:06:58.640Z,3.17
2023-02-27T11:09:27.711Z,1.13
2023-02-27T11:11:54.459Z,1.77
2023-02-27T11:14:29.703Z,3.13
2023-02-27T11:16:58.402Z,2.50
2023-02-27T11:19:29.652Z,3.50
2023-02-27T11:22:03.372Z,2.10
2023-02-27T11:24:30.781Z,2.93
2023-02-27T11:27:05.361Z,2.00
2023-02-27T11:29:33.981Z,3.63
2023-02-27T11:32:03.873Z,2.17
2023-02-27T11:34:36.618Z,3.13
2023-02-27T11:37:07.612Z,3.63
2023-02-27T11:39:37.714Z,2.07
2023-02-27T11:42:17.352Z,2.37
2023-02-27T11:46:14.339Z,2.27
2023-02-27T11:48:22.050Z,1.97
2023-02-27T11:50:55.570Z,1.00
2023-02-27T11:53:40.886Z,2.00
2023-02-27T11:56:35.100Z,2.20
2023-02-27T11:59:22.984Z,3.17
2023-02-27T12:01:53.394Z,2.47
2023-02-27T12:04:33.386Z,4.40
2023-02-27T12:07:21.859Z,1.27
2023-02-27T12:10:08.703Z,1.83
2023-02-27T12:12:49.278Z,2.93
2023-02-27T12:15:27.984Z,4.43
2023-02-27T12:18:14.540Z,7.00
2023-02-27T12:21:01.163Z,4.57
2023-02-27T12:23:38.871Z,2.60
2023-02-27T12:26:21.896Z,2.10
2023-02-27T12:29:20.649Z,2.60
2023-02-27T12:31:48.619Z,3.20
2023-02-27T12:34:29.284Z,6.17
2023-02-27T12:37:02.086Z,0.90
2023-02-27T12:39:28.900Z,2.27
2023-02-27T12:42:21.134Z,2.57
2023-02-27T12:44:57.114Z,5.23
2023-02-27T12:47:37.173Z,3.57
2023-02-27T12:50:26.180Z,2.87
2023-02-27T12:53:21.351Z,1.90
2023-02-27T12:55:52.600Z,3.17
2023-02-27T12:58:37.977Z,1.70
2023-02-27T13:01:13.616Z,2.93
2023-02-27T13:03:45.233Z,2.83
2023-02-27T13:06:27.356Z,1.70
2023-02-27T13:09:08.999Z,1.17
2023-02-27T13:11:58.065Z,1.17
2023-02-27T13:14:32.760Z,1.00
2023-02-27T13:17:16.813Z,2.73
2023-02-27T13:19:48.445Z,1.63
2023-02-27T13:22:32.645Z,1.47
2023-02-27T13:25:00.571Z,1.50
2023-02-27T13:27:32.824Z,1.03
2023-02-27T13:30:12.985Z,0.83
2023-02-27T13:33:01.590Z,1.90
2023-02-27T13:35:36.138Z,1.20
2023-02-27T13:38:05.312Z,1.70
2023-02-27T13:40:36.464Z,5.00
2023-02-27T13:43:06.010Z,1.07
2023-02-27T13:46:01.642Z,3.70
2023-02-27T13:48:34.351Z,2.33
2023-02-27T13:51:01.083Z,1.33
2023-02-27T13:53:27.957Z,4.00
2023-02-27T13:56:01.112Z,0.93
2023-02-27T13:58:27.719Z,2.93
2023-02-27T14:00:56.175Z,1.27
2023-02-27T14:03:25.778Z,1.87
2023-02-27T14:05:53.897Z,1.80
2023-02-27T14:08:26.798Z,1.10
2023-02-27T14:11:10.523Z,1.43
2023-02-27T14:13:57.635Z,0.80
2023-02-27T14:16:43.917Z,1.23
2023-02-27T14:19:17.113Z,1.53
2023-02-27T14:22:19.394Z,0.80
2023-02-27T14:25:01.608Z,0.90
2023-02-27T14:27:44.162Z,1.00
2023-02-27T14:30:22.402Z,1.33
2023-02-27T14:32:51.452Z,3.03
2023-02-27T14:35:18.163Z,0.90
2023-02-27T14:37:44.815Z,1.13
2023-02-27T14:40:36.919Z,2.07
2023-02-27T14:43:26.123Z,2.73
2023-02-27T14:45:53.213Z,2.33
2023-02-27T14:48:26.682Z,1.53
2023-02-27T14:50:54.070Z,1.13
2023-02-27T14:53:26.982Z,3.70
2023-02-27T14:55:55.232Z,4.80
2023-02-27T14:58:22.086Z,4.43
2023-02-27T15:00:57.792Z,2.67
2023-02-27T15:03:29.054Z,5.13
2023-02-27T15:05:59.581Z,6.03
2023-02-27T15:08:31.169Z,5.77
2023-02-27T15:10:58.045Z,3.67
2023-02-27T15:13:28.380Z,2.03
2023-02-27T15:16:23.109Z,3.20
2023-02-27T15:18:51.641Z,4.33
2023-02-27T15:21:19.969Z,2.50
2023-02-27T15:23:56.622Z,2.70
2023-02-27T15:26:23.416Z,41.20
2023-02-27T15:28:50.441Z,33.40
2023-02-27T15:31:21.992Z,29.77
2023-02-27T15:33:48.856Z,27.67
2023-02-27T15:36:34.530Z,27.57
2023-02-27T15:39:23.173Z,22.80
2023-02-27T15:41:54.934Z,23.30
2023-02-27T15:44:38.997Z,18.87
2023-02-27T15:47:06.026Z,19.50
2023-02-27T15:49:32.648Z,22.50
2023-02-27T15:52:12.022Z,15.93
2023-02-27T15:54:46.400Z,13.93
2023-02-27T15:57:13.492Z,16.13
2023-02-27T15:59:41.020Z,13.37
2023-02-27T16:02:21.834Z,18.50
2023-02-27T16:04:48.469Z,14.97
2023-02-27T16:07:17.373Z,14.87
2023-02-27T16:09:46.632Z,14.70
2023-02-27T16:12:22.464Z,11.60
2023-02-27T16:14:52.616Z,16.67
2023-02-27T16:17:22.365Z,14.17
2023-02-27T16:19:48.999Z,15.73
2023-02-27T16:22:16.884Z,13.27
2023-02-27T16:24:43.690Z,21.73
2023-02-27T16:27:19.263Z,15.27
2023-02-27T16:29:45.949Z,27.67
2023-02-27T16:32:24.270Z,66.07
2023-02-27T16:34:50.974Z,53.57
2023-02-27T16:37:23.035Z,53.33
2023-02-27T16:39:54.175Z,31.73
2023-02-27T16:42:20.958Z,38.17
2023-02-27T16:44:48.425Z,31.80
2023-02-27T16:47:16.042Z,31.40
2023-02-27T16:49:44.401Z,29.97
2023-02-27T16:52:11.384Z,33.13
2023-02-27T16:54:37.989Z,29.77
2023-02-27T16:57:04.563Z,29.53
2023-02-27T16:59:33.342Z,36.87
2023-02-27T17:02:01.101Z,29.57
2023-02-27T17:04:28.136Z,32.20
2023-02-27T17:06:55.685Z,31.07
2023-02-27T17:09:22.475Z,33.83
2023-02-27T17:11:49.671Z,26.33
2023-02-27T17:14:16.379Z,28.60
2023-02-27T17:16:42.968Z,21.67
2023-02-27T17:19:09.559Z,34.27
2023-02-27T17:21:36.195Z,27.37
2023-02-27T17:24:02.904Z,30.67
2023-02-27T17:26:31.008Z,38.27
2023-02-27T17:28:58.449Z,24.23
2023-02-27T17:31:25.124Z,22.00
2023-02-27T17:33:53.400Z,22.47
2023-02-27T17:36:20.433Z,21.93
2023-02-27T17:38:48.753Z,27.57
2023-02-27T17:41:15.522Z,24.27
2023-02-27T17:43:42.205Z,20.23
2023-02-27T17:46:09.455Z,21.23
2023-02-27T17:48:37.075Z,23.97
2023-02-27T17:51:05.265Z,14.83
2023-02-27T17:53:32.147Z,21.07
2023-02-27T17:55:58.757Z,19.47
2023-02-27T17:58:25.387Z,20.30
2023-02-27T18:00:52.006Z,19.37
2023-02-27T18:03:18.606Z,19.83
2023-02-27T18:05:52.239Z,20.80
2023-02-27T18:08:19.221Z,20.63
2023-02-27T18:10:49.322Z,22.20
2023-02-27T18:13:19.556Z,24.67
2023-02-27T18:15:46.307Z,17.53
2023-02-27T18:18:13.247Z,16.30
2023-02-27T18:20:40.395Z,17.97
2023-02-27T18:23:08.577Z,17.27
2023-02-27T18:25:35.780Z,16.73
2023-02-27T18:28:02.501Z,17.80
2023-02-27T18:30:30.881Z,13.37
2023-02-27T18:32:58.059Z,18.00
2023-02-27T18:35:24.991Z,15.30
2023-02-27T18:37:51.732Z,16.87
2023-02-27T18:40:18.443Z,11.97
2023-02-27T18:42:48.381Z,17.90
2023-02-27T18:45:15.034Z,15.73
2023-02-27T18:47:41.639Z,15.03
2023-02-27T18:50:08.820Z,14.77
2023-02-27T18:52:37.232Z,13.17
2023-02-27T18:55:04.272Z,21.63
2023-02-27T18:57:30.828Z,15.90
2023-02-27T18:59:57.413Z,14.13
2023-02-27T19:02:23.989Z,17.80
2023-02-27T19:04:50.568Z,16.07
2023-02-27T19:07:17.368Z,12.43
2023-02-27T19:09:44.497Z,17.67
2023-02-27T19:12:11.145Z,15.67
2023-02-27T19:14:40.895Z,13.30
2023-02-27T19:17:07.491Z,14.37
2023-02-27T19:19:34.067Z,14.60
2023-02-27T19:22:00.691Z,16.17
2023-02-27T19:24:27.365Z,10.63
2023-02-27T19:26:54.054Z,14.63
2023-02-27T19:29:20.651Z,16.23
2023-02-27T19:31:47.415Z,10.70
2023-02-27T19:34:14.882Z,13.70
2023-02-27T19:36:41.500Z,9.63
2023-02-27T19:39:08.113Z,11.40
2023-02-27T19:41:34.823Z,13.80
2023-02-27T19:44:01.522Z,11.10
2023-02-27T19:46:30.480Z,15.20
2023-02-27T19:48:58.507Z,10.83
2023-02-27T19:51:25.183Z,13.00
2023-02-27T19:53:51.899Z,13.10
2023-02-27T19:56:20.292Z,13.07
2023-02-27T19:58:47.989Z,10.60
2023-02-27T20:01:28.388Z,9.93
2023-02-27T20:03:55.926Z,10.77
2023-02-27T20:06:23.777Z,11.07
2023-02-27T20:08:50.906Z,11.30
2023-02-27T20:11:19.655Z,9.60
2023-02-27T20:13:46.827Z,10.63
2023-02-27T20:16:15.023Z,12.17
2023-02-27T20:18:42.590Z,8.33
2023-02-27T20:21:09.174Z,9.43
2023-02-27T20:23:37.709Z,12.97
2023-02-27T20:26:13.513Z,12.13
2023-02-27T20:28:40.391Z,13.27
2023-02-27T20:31:08.500Z,9.97
2023-02-27T20:33:35.095Z,10.43
2023-02-27T20:36:08.696Z,17.37
2023-02-27T20:38:38.976Z,8.80
2023-02-27T20:41:10.327Z,8.47
2023-02-27T20:43:42.747Z,8.03
2023-02-27T20:46:11.734Z,8.30
2023-02-27T20:48:38.705Z,10.77
2023-02-27T20:51:26.251Z,12.43
2023-02-27T20:53:54.313Z,11.40
2023-02-27T20:56:22.352Z,12.13
2023-02-27T20:58:49.052Z,8.60
2023-02-27T21:01:16.108Z,10.10
2023-02-27T21:03:43.774Z,11.53
2023-02-27T21:06:11.791Z,7.60
2023-02-27T21:08:39.291Z,11.33
2023-02-27T21:11:10.104Z,10.97
2023-02-27T21:13:36.832Z,8.77
2023-02-27T21:16:07.405Z,12.63
2023-02-27T21:18:34.200Z,10.57
2023-02-27T21:21:08.321Z,13.77
2023-02-27T21:23:40.895Z,9.40
2023-02-27T21:26:09.269Z,11.30
2023-02-27T21:28:42.013Z,9.20
2023-02-27T21:31:08.705Z,6.50
2023-02-27T21:33:35.486Z,10.73
2023-02-27T21:36:02.125Z,9.43
2023-02-27T21:38:29.334Z,6.93
2023-02-27T21:40:56.808Z,8.87
2023-02-27T21:43:23.502Z,11.30
2023-02-27T21:45:51.907Z,8.27
2023-02-27T21:48:18.589Z,10.67
2023-02-27T21:50:45.149Z,9.97
2023-02-27T21:53:11.741Z,10.37
2023-02-27T21:55:38.402Z,7.20
2023-02-27T21:58:07.192Z,9.77
2023-02-27T22:00:37.152Z,10.50
2023-02-27T22:03:04.118Z,9.43
2023-02-27T22:05:30.720Z,8.80
2023-02-27T22:07:57.339Z,13.27
2023-02-27T22:10:23.919Z,7.17
2023-02-27T22:12:50.694Z,6.83
2023-02-27T22:15:17.385Z,9.97
2023-02-27T22:17:44.120Z,5.37
2023-02-27T22:20:11.527Z,6.60
2023-02-27T22:22:38.198Z,6.63
2023-02-27T22:25:05.031Z,7.17
2023-02-27T22:27:31.729Z,5.37
2023-02-27T22:29:58.453Z,4.57
2023-02-27T22:32:25.165Z,8.97
2023-02-27T22:34:51.825Z,8.27
2023-02-27T22:37:19.733Z,7.60
2023-02-27T22:39:46.318Z,8.60
2023-02-27T22:42:14.160Z,5.27
2023-02-27T22:44:40.901Z,6.13
2023-02-27T22:47:07.502Z,5.77
2023-02-27T22:49:34.065Z,6.27
2023-02-27T22:52:00.673Z,7.17
2023-02-27T22:54:27.237Z,8.33
2023-02-27T22:56:56.300Z,6.77
2023-02-27T22:59:24.240Z,5.43
2023-02-27T23:01:51.324Z,9.57
2023-02-27T23:04:18.276Z,7.10
2023-02-27T23:06:44.989Z,6.40
2023-02-27T23:09:14.504Z,8.17
2023-02-27T23:11:41.944Z,5.40
2023-02-27T23:14:08.939Z,3.97
2023-02-27T23:16:35.698Z,4.93
2023-02-27T23:19:02.519Z,9.13
2023-02-27T23:21:35.485Z,4.03
2023-02-27T23:24:06.458Z,5.20
2023-02-27T23:26:38.489Z,6.10
2023-02-27T23:29:05.140Z,7.57
2023-02-27T23:31:34.658Z,3.77
2023-02-27T23:34:01.839Z,8.40
2023-02-27T23:36:28.449Z,4.80
2023-02-27T23:38:55.051Z,3.43
2023-02-27T23:41:21.740Z,5.07
2023-02-27T23:43:51.618Z,5.30
2023-02-27T23:46:18.233Z,4.87
2023-02-27T23:48:45.005Z,5.33
2023-02-27T23:51:11.684Z,5.77
2023-02-27T23:53:40.028Z,5.13
2023-02-27T23:56:16.687Z,4.50
2023-02-27T23:58:44.086Z,6.80
